Time,TemperatureF,DewpointF,PressureIn,WindDirection,WindDirectionDegrees,WindSpeedMPH,WindSpeedGustMPH,Humidity,HourlyPrecipIn,Conditions,Clouds,dailyrainin,SoftwareType,DateUTC
2013-08-24 00:13:00,78.0,66.0,-100.00,North,-999,-999.0,-999.0,65,0.00,,,0.46,,2013-08-24 05:13:00,
2013-08-24 00:23:00,78.0,66.0,-100.00,North,-999,-999.0,-999.0,65,0.00,,,0.46,,2013-08-24 05:23:00,
2013-08-24 00:30:00,77.0,65.0,-100.00,North,-999,-999.0,-999.0,64,0.00,,,0.46,,2013-08-24 05:30:00,
2013-08-24 01:12:00,77.0,65.0,-100.00,North,-999,-999.0,-999.0,64,0.00,,,0.46,,2013-08-24 06:12:00,
2013-08-24 01:22:00,77.0,65.0,-100.00,North,-999,-999.0,-999.0,64,0.00,,,0.46,,2013-08-24 06:22:00,
2013-08-24 01:30:00,77.0,64.0,-100.00,North,-999,-999.0,-999.0,64,0.00,,,0.46,,2013-08-24 06:30:00,
2013-08-24 02:12:00,77.0,64.0,-100.00,North,-999,-999.0,-999.0,64,0.00,,,0.46,,2013-08-24 07:12:00,
2013-08-24 02:22:00,77.0,64.0,-100.00,North,-999,-999.0,-999.0,64,0.00,,,0.46,,2013-08-24 07:22:00,
2013-08-24 02:30:00,71.0,69.0,-100.00,North,-999,-999.0,-999.0,95,0.00,,,0.46,,2013-08-24 07:30:00,
2013-08-24 03:12:00,71.0,69.0,-100.00,North,-999,-999.0,-999.0,95,0.00,,,0.46,,2013-08-24 08:12:00,
2013-08-24 03:22:00,71.0,69.0,-100.00,North,-999,-999.0,-999.0,95,0.00,,,0.46,,2013-08-24 08:22:00,
2013-08-24 03:30:00,71.0,69.0,-100.00,North,-999,-999.0,-999.0,96,0.00,,,0.46,,2013-08-24 08:30:00,
2013-08-24 04:11:00,71.0,69.0,-100.00,North,-999,-999.0,-999.0,96,0.00,,,0.46,,2013-08-24 09:11:00,
2013-08-24 04:22:00,71.0,69.0,-100.00,North,-999,-999.0,-999.0,96,0.00,,,0.46,,2013-08-24 09:22:00,
2013-08-24 04:30:00,74.0,69.0,-100.00,North,-999,-999.0,-999.0,85,0.00,,,0.46,,2013-08-24 09:30:00,
2013-08-24 05:13:00,74.0,69.0,-100.00,North,-999,-999.0,-999.0,85,0.00,,,0.46,,2013-08-24 10:13:00,
2013-08-24 05:23:00,74.0,69.0,-100.00,North,-999,-999.0,-999.0,85,0.00,,,0.46,,2013-08-24 10:23:00,
2013-08-24 05:30:00,75.0,69.0,-100.00,North,-999,-999.0,-999.0,82,0.00,,,0.46,,2013-08-24 10:30:00,
2013-08-24 06:12:00,75.0,69.0,-100.00,North,-999,-999.0,-999.0,82,0.00,,,0.46,,2013-08-24 11:12:00,
2013-08-24 06:22:00,75.0,69.0,-100.00,North,-999,-999.0,-999.0,82,0.00,,,0.46,,2013-08-24 11:22:00,
2013-08-24 06:30:00,71.0,65.0,-100.00,North,-999,-999.0,-999.0,80,0.00,,,0.46,,2013-08-24 11:30:00,
2013-08-24 07:12:00,71.0,65.0,-100.00,North,-999,-999.0,-999.0,80,0.00,,,0.46,,2013-08-24 12:12:00,
2013-08-24 07:21:00,71.0,65.0,-100.00,North,-999,-999.0,-999.0,80,0.00,,,0.46,,2013-08-24 12:21:00,
2013-08-24 07:30:00,70.0,66.0,-100.00,North,-999,-999.0,-999.0,88,0.00,,,0.46,,2013-08-24 12:30:00,
2013-08-24 08:11:00,70.0,66.0,-100.00,North,-999,-999.0,-999.0,88,0.00,,,0.46,,2013-08-24 13:11:00,
2013-08-24 08:22:00,70.0,66.0,-100.00,North,-999,-999.0,-999.0,88,0.00,,,0.46,,2013-08-24 13:22:00,
2013-08-24 08:30:00,73.0,67.0,-100.00,North,-999,-999.0,-999.0,82,0.00,,,0.46,,2013-08-24 13:30:00,
2013-08-24 09:11:00,73.0,67.0,-100.00,North,-999,-999.0,-999.0,82,0.00,,,0.46,,2013-08-24 14:11:00,
2013-08-24 09:22:00,73.0,67.0,-100.00,North,-999,-999.0,-999.0,82,0.00,,,0.46,,2013-08-24 14:22:00,
2013-08-24 09:30:00,79.0,68.0,-100.00,North,-999,-999.0,-999.0,69,0.00,,,0.46,,2013-08-24 14:30:00,
2013-08-24 10:12:00,79.0,68.0,-100.00,North,-999,-999.0,-999.0,69,0.00,,,0.46,,2013-08-24 15:12:00,
2013-08-24 10:22:00,79.0,68.0,-100.00,North,-999,-999.0,-999.0,69,0.00,,,0.46,,2013-08-24 15:22:00,
2013-08-24 10:30:00,82.0,70.0,-100.00,North,-999,-999.0,-999.0,67,0.00,,,0.46,,2013-08-24 15:30:00,
2013-08-24 11:13:00,82.0,70.0,-100.00,North,-999,-999.0,-999.0,67,0.00,,,0.46,,2013-08-24 16:13:00,
2013-08-24 11:23:00,82.0,70.0,-100.00,North,-999,-999.0,-999.0,67,0.00,,,0.46,,2013-08-24 16:23:00,
2013-08-24 11:30:00,86.0,67.0,-100.00,North,-999,-999.0,-999.0,54,0.00,,,0.46,,2013-08-24 16:30:00,
2013-08-24 12:12:00,86.0,67.0,-100.00,North,-999,-999.0,-999.0,54,0.00,,,0.46,,2013-08-24 17:12:00,
2013-08-24 12:23:00,86.0,67.0,-100.00,North,-999,-999.0,-999.0,54,0.00,,,0.46,,2013-08-24 17:23:00,
2013-08-24 12:30:00,89.0,69.0,-100.00,North,-999,-999.0,-999.0,51,0.00,,,0.46,,2013-08-24 17:30:00,
2013-08-24 13:13:00,89.0,69.0,-100.00,North,-999,-999.0,-999.0,51,0.00,,,0.46,,2013-08-24 18:13:00,
2013-08-24 13:22:00,89.0,69.0,-100.00,North,-999,-999.0,-999.0,51,0.00,,,0.46,,2013-08-24 18:22:00,
2013-08-24 13:30:00,90.0,63.0,-100.00,North,-999,-999.0,-999.0,41,0.00,,,0.46,,2013-08-24 18:30:00,
2013-08-24 14:12:00,90.0,63.0,-100.00,North,-999,-999.0,-999.0,41,0.00,,,0.46,,2013-08-24 19:12:00,
2013-08-24 14:22:00,90.0,63.0,-100.00,North,-999,-999.0,-999.0,41,0.00,,,0.46,,2013-08-24 19:22:00,
2013-08-24 14:30:00,90.0,66.0,-100.00,North,-999,-999.0,-999.0,46,0.01,,,0.41,,2013-08-24 19:30:00,
2013-08-24 15:11:00,90.0,66.0,-100.00,North,-999,-999.0,-999.0,46,0.01,,,0.41,,2013-08-24 20:11:00,
2013-08-24 15:22:00,90.0,66.0,-100.00,North,-999,-999.0,-999.0,46,0.01,,,0.41,,2013-08-24 20:22:00,
2013-08-24 15:30:00,92.0,64.0,-100.00,North,-999,-999.0,-999.0,41,0.00,,,0.01,,2013-08-24 20:30:00,
2013-08-24 16:11:00,92.0,64.0,-100.00,North,-999,-999.0,-999.0,41,0.00,,,0.01,,2013-08-24 21:11:00,
2013-08-24 16:22:00,92.0,64.0,-100.00,North,-999,-999.0,-999.0,41,0.00,,,0.01,,2013-08-24 21:22:00,
2013-08-24 16:30:00,94.0,65.0,-100.00,North,-999,-999.0,-999.0,39,0.00,,,0.01,,2013-08-24 21:30:00,
2013-08-24 17:14:00,94.0,65.0,-100.00,North,-999,-999.0,-999.0,39,0.00,,,0.01,,2013-08-24 22:14:00,
2013-08-24 17:24:00,94.0,65.0,-100.00,North,-999,-999.0,-999.0,39,0.00,,,0.01,,2013-08-24 22:24:00,
2013-08-24 17:30:00,93.0,62.0,-100.00,North,-999,-999.0,-999.0,35,0.00,,,-99.99,,2013-08-24 22:30:00,
2013-08-24 18:12:00,93.0,62.0,-100.00,North,-999,-999.0,-999.0,35,0.00,,,-99.99,,2013-08-24 23:12:00,
2013-08-24 18:22:00,93.0,62.0,-100.00,North,-999,-999.0,-999.0,35,0.00,,,-99.99,,2013-08-24 23:22:00,
2013-08-24 18:30:00,92.0,62.0,-100.00,North,-999,-999.0,-999.0,37,0.00,,,0.01,,2013-08-24 23:30:00,
2013-08-24 19:12:00,92.0,62.0,-100.00,North,-999,-999.0,-999.0,37,0.00,,,0.01,,2013-08-25 00:12:00,
2013-08-24 19:22:00,92.0,62.0,-100.00,North,-999,-999.0,-999.0,37,0.00,,,0.01,,2013-08-25 00:22:00,
2013-08-24 19:30:00,92.0,61.0,-100.00,North,-999,-999.0,-999.0,35,0.00,,,0.01,,2013-08-25 00:30:00,
2013-08-24 20:11:00,92.0,61.0,-100.00,North,-999,-999.0,-999.0,35,0.00,,,0.01,,2013-08-25 01:11:00,
2013-08-24 20:22:00,92.0,61.0,-100.00,North,-999,-999.0,-999.0,35,0.00,,,0.01,,2013-08-25 01:22:00,
2013-08-24 20:30:00,89.0,61.0,-100.00,North,-999,-999.0,-999.0,39,0.00,,,0.01,,2013-08-25 01:30:00,
2013-08-24 21:11:00,89.0,61.0,-100.00,North,-999,-999.0,-999.0,39,0.00,,,0.01,,2013-08-25 02:11:00,
2013-08-24 21:22:00,89.0,61.0,-100.00,North,-999,-999.0,-999.0,39,0.00,,,0.01,,2013-08-25 02:22:00,
2013-08-24 21:30:00,87.0,61.0,-100.00,North,-999,-999.0,-999.0,41,0.00,,,0.01,,2013-08-25 02:30:00,
2013-08-24 22:11:00,87.0,61.0,-100.00,North,-999,-999.0,-999.0,41,0.00,,,0.01,,2013-08-25 03:11:00,
2013-08-24 22:23:00,87.0,61.0,-100.00,North,-999,-999.0,-999.0,41,0.00,,,0.01,,2013-08-25 03:23:00,
2013-08-24 22:30:00,84.0,62.0,-100.00,North,-999,-999.0,-999.0,47,0.00,,,0.01,,2013-08-25 03:30:00,
2013-08-24 23:14:00,84.0,62.0,-100.00,North,-999,-999.0,-999.0,47,0.00,,,0.01,,2013-08-25 04:14:00,
2013-08-24 23:25:00,84.0,62.0,-100.00,North,-999,-999.0,-999.0,47,0.00,,,0.01,,2013-08-25 04:25:00,
2013-08-24 23:30:00,82.0,63.0,-100.00,North,-999,-999.0,-999.0,52,0.00,,,0.01,,2013-08-25 04:30:00,